sensor_id;sensor_type;location;lat;lon;timestamp;P1;durP1;ratioP1;P2;durP2;ratioP2
9174;SDS011;54374;50.196;8.050;2022-08-21T00:01:02;8.60;;;3.17;;
9174;SDS011;54374;50.196;8.050;2022-08-21T00:03:31;5.93;;;3.20;;
9174;SDS011;54374;50.196;8.050;2022-08-21T00:05:59;8.35;;;3.40;;
9174;SDS011;54374;50.196;8.050;2022-08-21T00:08:28;7.80;;;2.80;;
9174;SDS011;54374;50.196;8.050;2022-08-21T00:10:55;5.30;;;2.83;;
9174;SDS011;54374;50.196;8.050;2022-08-21T00:13:22;10.68;;;2.53;;
9174;SDS011;54374;50.196;8.050;2022-08-21T00:15:51;7.35;;;2.80;;
9174;SDS011;54374;50.196;8.050;2022-08-21T00:18:18;7.40;;;3.70;;
9174;SDS011;54374;50.196;8.050;2022-08-21T00:20:46;6.40;;;2.92;;
9174;SDS011;54374;50.196;8.050;2022-08-21T00:23:14;7.68;;;3.45;;
9174;SDS011;54374;50.196;8.050;2022-08-21T00:25:41;9.05;;;3.50;;
9174;SDS011;54374;50.196;8.050;2022-08-21T00:28:09;6.43;;;2.72;;
9174;SDS011;54374;50.196;8.050;2022-08-21T00:30:36;6.60;;;3.17;;
9174;SDS011;54374;50.196;8.050;2022-08-21T00:33:05;7.45;;;3.00;;
9174;SDS011;54374;50.196;8.050;2022-08-21T00:35:34;5.57;;;2.80;;
9174;SDS011;54374;50.196;8.050;2022-08-21T00:38:04;3.88;;;2.72;;
9174;SDS011;54374;50.196;8.050;2022-08-21T00:40:35;4.45;;;2.95;;
9174;SDS011;54374;50.196;8.050;2022-08-21T00:43:03;2.67;;;2.15;;
9174;SDS011;54374;50.196;8.050;2022-08-21T00:45:32;6.32;;;2.80;;
9174;SDS011;54374;50.196;8.050;2022-08-21T00:47:59;6.32;;;3.05;;
9174;SDS011;54374;50.196;8.050;2022-08-21T00:50:29;7.18;;;2.90;;
9174;SDS011;54374;50.196;8.050;2022-08-21T00:52:59;4.47;;;2.35;;
9174;SDS011;54374;50.196;8.050;2022-08-21T00:55:29;6.28;;;3.05;;
9174;SDS011;54374;50.196;8.050;2022-08-21T00:57:58;4.00;;;2.83;;
9174;SDS011;54374;50.196;8.050;2022-08-21T01:00:28;4.28;;;3.10;;
9174;SDS011;54374;50.196;8.050;2022-08-21T01:02:58;3.80;;;2.45;;
9174;SDS011;54374;50.196;8.050;2022-08-21T01:05:29;7.05;;;3.58;;
9174;SDS011;54374;50.196;8.050;2022-08-21T01:07:56;6.00;;;3.00;;
9174;SDS011;54374;50.196;8.050;2022-08-21T01:10:23;4.25;;;2.85;;
9174;SDS011;54374;50.196;8.050;2022-08-21T01:12:50;5.55;;;2.75;;
9174;SDS011;54374;50.196;8.050;2022-08-21T01:15:18;8.63;;;2.55;;
9174;SDS011;54374;50.196;8.050;2022-08-21T01:17:47;7.30;;;2.90;;
9174;SDS011;54374;50.196;8.050;2022-08-21T01:20:15;5.13;;;2.65;;
9174;SDS011;54374;50.196;8.050;2022-08-21T01:22:43;5.40;;;3.55;;
9174;SDS011;54374;50.196;8.050;2022-08-21T01:25:12;6.60;;;3.53;;
9174;SDS011;54374;50.196;8.050;2022-08-21T01:27:45;6.40;;;3.55;;
9174;SDS011;54374;50.196;8.050;2022-08-21T01:30:14;4.15;;;2.67;;
9174;SDS011;54374;50.196;8.050;2022-08-21T01:32:43;5.90;;;2.97;;
9174;SDS011;54374;50.196;8.050;2022-08-21T01:35:10;5.63;;;2.55;;
9174;SDS011;54374;50.196;8.050;2022-08-21T01:37:38;10.95;;;3.92;;
9174;SDS011;54374;50.196;8.050;2022-08-21T01:40:08;6.75;;;3.22;;
9174;SDS011;54374;50.196;8.050;2022-08-21T01:42:36;5.43;;;3.20;;
9174;SDS011;54374;50.196;8.050;2022-08-21T01:45:04;4.15;;;3.08;;
9174;SDS011;54374;50.196;8.050;2022-08-21T01:47:33;4.28;;;3.15;;
9174;SDS011;54374;50.196;8.050;2022-08-21T01:50:02;6.22;;;3.15;;
9174;SDS011;54374;50.196;8.050;2022-08-21T01:52:30;13.75;;;3.75;;
9174;SDS011;54374;50.196;8.050;2022-08-21T01:54:57;5.72;;;3.20;;
9174;SDS011;54374;50.196;8.050;2022-08-21T01:57:26;7.80;;;3.20;;
9174;SDS011;54374;50.196;8.050;2022-08-21T01:59:53;4.30;;;2.45;;
9174;SDS011;54374;50.196;8.050;2022-08-21T02:02:20;8.27;;;3.00;;
9174;SDS011;54374;50.196;8.050;2022-08-21T02:04:48;5.75;;;3.20;;
9174;SDS011;54374;50.196;8.050;2022-08-21T02:07:15;5.95;;;3.20;;
9174;SDS011;54374;50.196;8.050;2022-08-21T02:09:42;4.03;;;2.90;;
9174;SDS011;54374;50.196;8.050;2022-08-21T02:12:09;7.18;;;3.35;;
9174;SDS011;54374;50.196;8.050;2022-08-21T02:14:38;6.05;;;4.07;;
9174;SDS011;54374;50.196;8.050;2022-08-21T02:17:05;6.05;;;3.28;;
9174;SDS011;54374;50.196;8.050;2022-08-21T02:19:33;7.45;;;3.25;;
9174;SDS011;54374;50.196;8.050;2022-08-21T02:21:59;7.10;;;3.20;;
9174;SDS011;54374;50.196;8.050;2022-08-21T02:24:27;6.80;;;3.20;;
9174;SDS011;54374;50.196;8.050;2022-08-21T02:26:54;5.22;;;2.95;;
9174;SDS011;54374;50.196;8.050;2022-08-21T02:29:21;10.20;;;3.28;;
9174;SDS011;54374;50.196;8.050;2022-08-21T02:31:49;6.03;;;3.45;;
9174;SDS011;54374;50.196;8.050;2022-08-21T02:34:16;5.55;;;3.45;;
9174;SDS011;54374;50.196;8.050;2022-08-21T02:36:44;9.30;;;3.45;;
9174;SDS011;54374;50.196;8.050;2022-08-21T02:39:11;5.22;;;3.13;;
9174;SDS011;54374;50.196;8.050;2022-08-21T02:41:38;10.85;;;4.35;;
9174;SDS011;54374;50.196;8.050;2022-08-21T02:44:05;5.25;;;2.78;;
9174;SDS011;54374;50.196;8.050;2022-08-21T02:46:32;7.82;;;3.33;;
9174;SDS011;54374;50.196;8.050;2022-08-21T02:49:01;5.10;;;2.92;;
9174;SDS011;54374;50.196;8.050;2022-08-21T02:51:28;4.80;;;3.70;;
9174;SDS011;54374;50.196;8.050;2022-08-21T02:56:47;5.85;;;2.80;;
9174;SDS011;54374;50.196;8.050;2022-08-21T02:59:14;7.80;;;2.63;;
9174;SDS011;54374;50.196;8.050;2022-08-21T03:01:41;4.53;;;3.20;;
9174;SDS011;54374;50.196;8.050;2022-08-21T03:04:10;9.80;;;4.40;;
9174;SDS011;54374;50.196;8.050;2022-08-21T03:06:37;6.15;;;3.58;;
9174;SDS011;54374;50.196;8.050;2022-08-21T03:09:04;8.50;;;3.50;;
9174;SDS011;54374;50.196;8.050;2022-08-21T03:11:31;7.28;;;3.30;;
9174;SDS011;54374;50.196;8.050;2022-08-21T03:13:58;5.82;;;3.38;;
9174;SDS011;54374;50.196;8.050;2022-08-21T03:16:26;8.45;;;3.50;;
9174;SDS011;54374;50.196;8.050;2022-08-21T03:18:53;11.65;;;3.92;;
9174;SDS011;54374;50.196;8.050;2022-08-21T03:21:21;5.88;;;3.40;;
9174;SDS011;54374;50.196;8.050;2022-08-21T03:23:48;8.00;;;3.47;;
9174;SDS011;54374;50.196;8.050;2022-08-21T03:26:16;10.07;;;3.90;;
9174;SDS011;54374;50.196;8.050;2022-08-21T03:28:43;4.90;;;2.85;;
9174;SDS011;54374;50.196;8.050;2022-08-21T03:31:10;7.15;;;3.45;;
9174;SDS011;54374;50.196;8.050;2022-08-21T03:33:36;5.32;;;3.13;;
9174;SDS011;54374;50.196;8.050;2022-08-21T03:36:04;4.72;;;2.85;;
9174;SDS011;54374;50.196;8.050;2022-08-21T03:38:34;7.18;;;3.22;;
9174;SDS011;54374;50.196;8.050;2022-08-21T03:41:02;8.05;;;3.47;;
9174;SDS011;54374;50.196;8.050;2022-08-21T03:43:30;5.20;;;3.03;;
9174;SDS011;54374;50.196;8.050;2022-08-21T03:45:58;5.68;;;3.08;;
9174;SDS011;54374;50.196;8.050;2022-08-21T03:48:27;5.18;;;3.20;;
9174;SDS011;54374;50.196;8.050;2022-08-21T03:50:54;8.73;;;3.33;;
9174;SDS011;54374;50.196;8.050;2022-08-21T03:53:21;5.03;;;3.20;;
9174;SDS011;54374;50.196;8.050;2022-08-21T03:55:50;5.40;;;3.20;;
9174;SDS011;54374;50.196;8.050;2022-08-21T03:58:19;7.85;;;3.70;;
9174;SDS011;54374;50.196;8.050;2022-08-21T04:00:49;8.48;;;3.15;;
9174;SDS011;54374;50.196;8.050;2022-08-21T04:03:18;6.03;;;3.40;;
9174;SDS011;54374;50.196;8.050;2022-08-21T04:05:45;7.22;;;3.35;;
9174;SDS011;54374;50.196;8.050;2022-08-21T04:08:14;4.55;;;3.25;;
9174;SDS011;54374;50.196;8.050;2022-08-21T04:10:44;6.68;;;3.35;;
9174;SDS011;54374;50.196;8.050;2022-08-21T04:13:14;8.13;;;3.28;;
9174;SDS011;54374;50.196;8.050;2022-08-21T04:15:41;6.30;;;3.40;;
9174;SDS011;54374;50.196;8.050;2022-08-21T04:18:08;7.13;;;3.80;;
9174;SDS011;54374;50.196;8.050;2022-08-21T04:20:35;8.60;;;4.05;;
9174;SDS011;54374;50.196;8.050;2022-08-21T04:23:02;6.90;;;3.58;;
9174;SDS011;54374;50.196;8.050;2022-08-21T04:25:29;9.18;;;3.72;;
9174;SDS011;54374;50.196;8.050;2022-08-21T04:27:57;6.35;;;3.38;;
9174;SDS011;54374;50.196;8.050;2022-08-21T04:30:25;6.30;;;3.42;;
9174;SDS011;54374;50.196;8.050;2022-08-21T04:32:52;6.55;;;3.45;;
9174;SDS011;54374;50.196;8.050;2022-08-21T04:35:20;8.70;;;3.55;;
9174;SDS011;54374;50.196;8.050;2022-08-21T04:37:48;7.78;;;3.65;;
9174;SDS011;54374;50.196;8.050;2022-08-21T04:40:16;7.65;;;3.35;;
9174;SDS011;54374;50.196;8.050;2022-08-21T04:42:45;5.80;;;3.35;;
9174;SDS011;54374;50.196;8.050;2022-08-21T04:45:18;7.32;;;3.55;;
9174;SDS011;54374;50.196;8.050;2022-08-21T04:47:53;9.82;;;4.20;;
9174;SDS011;54374;50.196;8.050;2022-08-21T04:50:23;8.07;;;4.13;;
9174;SDS011;54374;50.196;8.050;2022-08-21T04:53:02;5.47;;;3.70;;
9174;SDS011;54374;50.196;8.050;2022-08-21T04:55:30;7.80;;;3.72;;
9174;SDS011;54374;50.196;8.050;2022-08-21T04:57:57;8.18;;;3.40;;
9174;SDS011;54374;50.196;8.050;2022-08-21T05:00:26;5.22;;;3.60;;
9174;SDS011;54374;50.196;8.050;2022-08-21T05:02:55;6.60;;;3.30;;
9174;SDS011;54374;50.196;8.050;2022-08-21T05:05:24;6.57;;;3.78;;
9174;SDS011;54374;50.196;8.050;2022-08-21T05:07:51;7.18;;;3.20;;
9174;SDS011;54374;50.196;8.050;2022-08-21T05:10:19;6.55;;;3.42;;
9174;SDS011;54374;50.196;8.050;2022-08-21T05:12:46;7.22;;;4.15;;
9174;SDS011;54374;50.196;8.050;2022-08-21T05:15:14;7.18;;;4.00;;
9174;SDS011;54374;50.196;8.050;2022-08-21T05:17:42;9.40;;;3.70;;
9174;SDS011;54374;50.196;8.050;2022-08-21T05:20:11;6.10;;;3.70;;
9174;SDS011;54374;50.196;8.050;2022-08-21T05:22:39;8.68;;;3.55;;
9174;SDS011;54374;50.196;8.050;2022-08-21T05:25:07;8.77;;;3.20;;
9174;SDS011;54374;50.196;8.050;2022-08-21T05:27:35;4.97;;;3.53;;
9174;SDS011;54374;50.196;8.050;2022-08-21T05:30:04;6.97;;;3.35;;
9174;SDS011;54374;50.196;8.050;2022-08-21T05:32:32;14.60;;;3.95;;
9174;SDS011;54374;50.196;8.050;2022-08-21T05:35:00;6.38;;;2.95;;
9174;SDS011;54374;50.196;8.050;2022-08-21T05:37:29;5.00;;;3.80;;
9174;SDS011;54374;50.196;8.050;2022-08-21T05:39:57;4.68;;;3.20;;
9174;SDS011;54374;50.196;8.050;2022-08-21T05:42:24;6.57;;;4.47;;
9174;SDS011;54374;50.196;8.050;2022-08-21T05:44:53;9.20;;;3.65;;
9174;SDS011;54374;50.196;8.050;2022-08-21T05:47:20;5.95;;;3.90;;
9174;SDS011;54374;50.196;8.050;2022-08-21T05:49:47;6.85;;;3.58;;
9174;SDS011;54374;50.196;8.050;2022-08-21T05:52:18;6.10;;;3.97;;
9174;SDS011;54374;50.196;8.050;2022-08-21T05:54:46;10.35;;;3.95;;
9174;SDS011;54374;50.196;8.050;2022-08-21T05:57:14;6.60;;;3.75;;
9174;SDS011;54374;50.196;8.050;2022-08-21T05:59:41;5.20;;;3.40;;
9174;SDS011;54374;50.196;8.050;2022-08-21T06:02:08;6.55;;;3.40;;
9174;SDS011;54374;50.196;8.050;2022-08-21T06:04:36;5.88;;;4.03;;
9174;SDS011;54374;50.196;8.050;2022-08-21T06:07:05;7.30;;;3.80;;
9174;SDS011;54374;50.196;8.050;2022-08-21T06:09:33;9.70;;;4.13;;
9174;SDS011;54374;50.196;8.050;2022-08-21T06:12:04;8.38;;;4.10;;
9174;SDS011;54374;50.196;8.050;2022-08-21T06:14:33;4.65;;;3.15;;
9174;SDS011;54374;50.196;8.050;2022-08-21T06:17:01;5.65;;;3.40;;
9174;SDS011;54374;50.196;8.050;2022-08-21T06:19:29;5.07;;;3.47;;
9174;SDS011;54374;50.196;8.050;2022-08-21T06:21:56;7.40;;;3.70;;
9174;SDS011;54374;50.196;8.050;2022-08-21T06:24:23;5.53;;;3.45;;
9174;SDS011;54374;50.196;8.050;2022-08-21T06:26:50;7.25;;;3.53;;
9174;SDS011;54374;50.196;8.050;2022-08-21T06:29:19;5.85;;;3.40;;
9174;SDS011;54374;50.196;8.050;2022-08-21T06:31:47;4.85;;;3.30;;
9174;SDS011;54374;50.196;8.050;2022-08-21T06:34:15;9.77;;;3.95;;
9174;SDS011;54374;50.196;8.050;2022-08-21T06:36:43;6.55;;;3.65;;
9174;SDS011;54374;50.196;8.050;2022-08-21T06:39:10;9.50;;;3.30;;
9174;SDS011;54374;50.196;8.050;2022-08-21T06:41:38;6.05;;;3.70;;
9174;SDS011;54374;50.196;8.050;2022-08-21T06:44:05;6.43;;;3.47;;
9174;SDS011;54374;50.196;8.050;2022-08-21T06:46:34;19.60;;;4.80;;
9174;SDS011;54374;50.196;8.050;2022-08-21T06:49:01;5.75;;;3.60;;
9174;SDS011;54374;50.196;8.050;2022-08-21T06:51:28;7.35;;;3.55;;
9174;SDS011;54374;50.196;8.050;2022-08-21T06:53:55;5.40;;;3.17;;
9174;SDS011;54374;50.196;8.050;2022-08-21T06:56:22;5.32;;;3.25;;
9174;SDS011;54374;50.196;8.050;2022-08-21T06:58:49;7.22;;;3.58;;
9174;SDS011;54374;50.196;8.050;2022-08-21T07:01:24;7.35;;;3.15;;
9174;SDS011;54374;50.196;8.050;2022-08-21T07:03:53;5.67;;;3.10;;
9174;SDS011;54374;50.196;8.050;2022-08-21T07:06:20;6.53;;;3.00;;
9174;SDS011;54374;50.196;8.050;2022-08-21T07:08:47;5.95;;;3.38;;
9174;SDS011;54374;50.196;8.050;2022-08-21T07:11:16;6.43;;;3.23;;
9174;SDS011;54374;50.196;8.050;2022-08-21T07:13:46;6.07;;;3.50;;
9174;SDS011;54374;50.196;8.050;2022-08-21T07:16:13;4.53;;;3.27;;
9174;SDS011;54374;50.196;8.050;2022-08-21T07:18:40;6.93;;;3.13;;
9174;SDS011;54374;50.196;8.050;2022-08-21T07:21:09;6.60;;;2.90;;
9174;SDS011;54374;50.196;8.050;2022-08-21T07:23:37;6.00;;;3.47;;
9174;SDS011;54374;50.196;8.050;2022-08-21T07:26:06;4.47;;;3.30;;
9174;SDS011;54374;50.196;8.050;2022-08-21T07:28:33;6.97;;;3.50;;
9174;SDS011;54374;50.196;8.050;2022-08-21T07:31:01;4.53;;;3.83;;
9174;SDS011;54374;50.196;8.050;2022-08-21T07:33:30;6.40;;;3.50;;
9174;SDS011;54374;50.196;8.050;2022-08-21T07:35:59;10.23;;;4.43;;
9174;SDS011;54374;50.196;8.050;2022-08-21T07:38:27;17.70;;;7.00;;
9174;SDS011;54374;50.196;8.050;2022-08-21T07:40:55;12.53;;;6.70;;
9174;SDS011;54374;50.196;8.050;2022-08-21T07:43:24;7.63;;;4.07;;
9174;SDS011;54374;50.196;8.050;2022-08-21T07:45:51;6.93;;;3.23;;
9174;SDS011;54374;50.196;8.050;2022-08-21T07:48:19;7.57;;;3.60;;
9174;SDS011;54374;50.196;8.050;2022-08-21T07:50:46;6.77;;;3.87;;
9174;SDS011;54374;50.196;8.050;2022-08-21T07:53:14;9.17;;;5.63;;
9174;SDS011;54374;50.196;8.050;2022-08-21T07:55:43;10.93;;;5.00;;
9174;SDS011;54374;50.196;8.050;2022-08-21T07:58:09;5.60;;;4.67;;
9174;SDS011;54374;50.196;8.050;2022-08-21T08:00:36;13.20;;;5.30;;
9174;SDS011;54374;50.196;8.050;2022-08-21T08:03:03;11.67;;;4.70;;
9174;SDS011;54374;50.196;8.050;2022-08-21T08:05:31;12.03;;;5.80;;
9174;SDS011;54374;50.196;8.050;2022-08-21T08:08:00;11.93;;;4.70;;
9174;SDS011;54374;50.196;8.050;2022-08-21T08:10:27;9.70;;;5.33;;
9174;SDS011;54374;50.196;8.050;2022-08-21T08:12:55;7.77;;;4.40;;
9174;SDS011;54374;50.196;8.050;2022-08-21T08:15:24;9.90;;;4.70;;
9174;SDS011;54374;50.196;8.050;2022-08-21T08:17:53;8.33;;;4.57;;
9174;SDS011;54374;50.196;8.050;2022-08-21T08:20:22;12.63;;;4.80;;
9174;SDS011;54374;50.196;8.050;2022-08-21T08:22:51;8.40;;;4.50;;
9174;SDS011;54374;50.196;8.050;2022-08-21T08:25:19;6.53;;;3.83;;
9174;SDS011;54374;50.196;8.050;2022-08-21T08:27:47;7.20;;;4.10;;
9174;SDS011;54374;50.196;8.050;2022-08-21T08:30:16;10.30;;;4.07;;
9174;SDS011;54374;50.196;8.050;2022-08-21T08:32:44;9.27;;;5.30;;
9174;SDS011;54374;50.196;8.050;2022-08-21T08:35:12;10.13;;;4.23;;
9174;SDS011;54374;50.196;8.050;2022-08-21T08:37:40;8.93;;;4.53;;
9174;SDS011;54374;50.196;8.050;2022-08-21T08:40:11;11.43;;;4.70;;
9174;SDS011;54374;50.196;8.050;2022-08-21T08:42:39;5.97;;;4.23;;
9174;SDS011;54374;50.196;8.050;2022-08-21T08:45:08;7.97;;;4.30;;
9174;SDS011;54374;50.196;8.050;2022-08-21T08:47:39;9.20;;;4.80;;
9174;SDS011;54374;50.196;8.050;2022-08-21T08:50:11;11.50;;;3.40;;
9174;SDS011;54374;50.196;8.050;2022-08-21T08:52:43;8.23;;;3.20;;
9174;SDS011;54374;50.196;8.050;2022-08-21T08:55:15;11.47;;;4.20;;
9174;SDS011;54374;50.196;8.050;2022-08-21T08:57:46;6.17;;;2.93;;
9174;SDS011;54374;50.196;8.050;2022-08-21T09:00:16;9.10;;;3.30;;
9174;SDS011;54374;50.196;8.050;2022-08-21T09:02:47;5.57;;;2.50;;
9174;SDS011;54374;50.196;8.050;2022-08-21T09:05:23;9.63;;;3.10;;
9174;SDS011;54374;50.196;8.050;2022-08-21T09:08:00;4.73;;;2.30;;
9174;SDS011;54374;50.196;8.050;2022-08-21T09:10:44;4.43;;;2.50;;
9174;SDS011;54374;50.196;8.050;2022-08-21T09:13:24;6.17;;;2.70;;
9174;SDS011;54374;50.196;8.050;2022-08-21T09:16:00;6.93;;;2.63;;
9174;SDS011;54374;50.196;8.050;2022-08-21T09:18:44;5.50;;;2.80;;
9174;SDS011;54374;50.196;8.050;2022-08-21T09:21:21;5.20;;;1.83;;
9174;SDS011;54374;50.196;8.050;2022-08-21T09:23:55;4.60;;;2.80;;
9174;SDS011;54374;50.196;8.050;2022-08-21T09:26:30;6.77;;;2.60;;
9174;SDS011;54374;50.196;8.050;2022-08-21T09:29:02;4.13;;;2.43;;
9174;SDS011;54374;50.196;8.050;2022-08-21T09:31:31;5.37;;;2.70;;
9174;SDS011;54374;50.196;8.050;2022-08-21T09:34:02;9.50;;;2.67;;
9174;SDS011;54374;50.196;8.050;2022-08-21T09:36:35;3.53;;;2.17;;
9174;SDS011;54374;50.196;8.050;2022-08-21T09:39:05;6.10;;;2.87;;
9174;SDS011;54374;50.196;8.050;2022-08-21T09:41:33;3.40;;;1.90;;
9174;SDS011;54374;50.196;8.050;2022-08-21T09:44:02;5.60;;;2.43;;
9174;SDS011;54374;50.196;8.050;2022-08-21T09:46:30;3.90;;;2.00;;
9174;SDS011;54374;50.196;8.050;2022-08-21T09:48:58;7.87;;;2.10;;
9174;SDS011;54374;50.196;8.050;2022-08-21T09:51:29;8.10;;;2.40;;
9174;SDS011;54374;50.196;8.050;2022-08-21T09:53:58;2.80;;;2.07;;
9174;SDS011;54374;50.196;8.050;2022-08-21T09:56:51;6.20;;;3.27;;
9174;SDS011;54374;50.196;8.050;2022-08-21T09:59:39;5.47;;;2.30;;
9174;SDS011;54374;50.196;8.050;2022-08-21T10:02:20;3.73;;;1.83;;
9174;SDS011;54374;50.196;8.050;2022-08-21T10:04:51;8.63;;;2.10;;
9174;SDS011;54374;50.196;8.050;2022-08-21T10:07:22;5.17;;;1.90;;
9174;SDS011;54374;50.196;8.050;2022-08-21T10:09:58;4.30;;;1.80;;
9174;SDS011;54374;50.196;8.050;2022-08-21T10:12:28;8.50;;;2.23;;
9174;SDS011;54374;50.196;8.050;2022-08-21T10:15:04;3.57;;;1.87;;
9174;SDS011;54374;50.196;8.050;2022-08-21T10:17:42;4.47;;;2.30;;
9174;SDS011;54374;50.196;8.050;2022-08-21T10:20:17;6.80;;;2.37;;
9174;SDS011;54374;50.196;8.050;2022-08-21T10:22:52;2.93;;;1.77;;
9174;SDS011;54374;50.196;8.050;2022-08-21T10:25:31;4.97;;;2.10;;
9174;SDS011;54374;50.196;8.050;2022-08-21T10:28:05;2.00;;;1.47;;
9174;SDS011;54374;50.196;8.050;2022-08-21T10:30:40;4.37;;;1.90;;
9174;SDS011;54374;50.196;8.050;2022-08-21T10:33:24;5.97;;;1.90;;
9174;SDS011;54374;50.196;8.050;2022-08-21T10:36:04;7.57;;;2.03;;
9174;SDS011;54374;50.196;8.050;2022-08-21T10:38:45;3.70;;;1.70;;
9174;SDS011;54374;50.196;8.050;2022-08-21T10:41:29;7.73;;;1.87;;
9174;SDS011;54374;50.196;8.050;2022-08-21T10:44:10;3.23;;;2.80;;
9174;SDS011;54374;50.196;8.050;2022-08-21T10:46:50;4.00;;;2.20;;
9174;SDS011;54374;50.196;8.050;2022-08-21T10:49:22;6.13;;;1.70;;
9174;SDS011;54374;50.196;8.050;2022-08-21T10:52:02;2.13;;;1.90;;
9174;SDS011;54374;50.196;8.050;2022-08-21T10:54:52;5.23;;;2.00;;
9174;SDS011;54374;50.196;8.050;2022-08-21T10:57:27;6.17;;;2.17;;
9174;SDS011;54374;50.196;8.050;2022-08-21T11:00:02;5.47;;;1.90;;
9174;SDS011;54374;50.196;8.050;2022-08-21T11:02:36;3.93;;;2.00;;
9174;SDS011;54374;50.196;8.050;2022-08-21T11:05:08;4.23;;;1.90;;
9174;SDS011;54374;50.196;8.050;2022-08-21T11:07:39;4.33;;;2.00;;
9174;SDS011;54374;50.196;8.050;2022-08-21T11:10:14;3.13;;;1.73;;
9174;SDS011;54374;50.196;8.050;2022-08-21T11:12:47;4.03;;;2.20;;
9174;SDS011;54374;50.196;8.050;2022-08-21T11:15:31;5.27;;;2.00;;
9174;SDS011;54374;50.196;8.050;2022-08-21T11:18:15;4.00;;;1.70;;
9174;SDS011;54374;50.196;8.050;2022-08-21T11:20:47;7.40;;;2.20;;
9174;SDS011;54374;50.196;8.050;2022-08-21T11:23:21;4.97;;;1.93;;
9174;SDS011;54374;50.196;8.050;2022-08-21T11:25:57;5.37;;;2.30;;
9174;SDS011;54374;50.196;8.050;2022-08-21T11:28:29;5.37;;;1.60;;
9174;SDS011;54374;50.196;8.050;2022-08-21T11:31:01;4.00;;;2.00;;
9174;SDS011;54374;50.196;8.050;2022-08-21T11:33:49;4.53;;;1.57;;
9174;SDS011;54374;50.196;8.050;2022-08-21T11:36:30;2.97;;;1.80;;
9174;SDS011;54374;50.196;8.050;2022-08-21T11:39:06;2.37;;;1.63;;
9174;SDS011;54374;50.196;8.050;2022-08-21T11:41:43;5.37;;;1.80;;
9174;SDS011;54374;50.196;8.050;2022-08-21T11:44:18;1.67;;;1.20;;
9174;SDS011;54374;50.196;8.050;2022-08-21T11:46:53;3.33;;;1.37;;
9174;SDS011;54374;50.196;8.050;2022-08-21T11:49:31;4.27;;;1.40;;
9174;SDS011;54374;50.196;8.050;2022-08-21T11:52:10;3.07;;;1.97;;
9174;SDS011;54374;50.196;8.050;2022-08-21T11:54:43;3.57;;;1.33;;
9174;SDS011;54374;50.196;8.050;2022-08-21T11:57:17;2.90;;;1.80;;
9174;SDS011;54374;50.196;8.050;2022-08-21T11:59:49;2.50;;;1.70;;
9174;SDS011;54374;50.196;8.050;2022-08-21T12:02:21;4.73;;;1.57;;
9174;SDS011;54374;50.196;8.050;2022-08-21T12:04:52;3.53;;;1.77;;
9174;SDS011;54374;50.196;8.050;2022-08-21T12:07:29;2.80;;;1.50;;
9174;SDS011;54374;50.196;8.050;2022-08-21T12:09:59;7.33;;;1.90;;
9174;SDS011;54374;50.196;8.050;2022-08-21T12:12:30;2.47;;;1.70;;
9174;SDS011;54374;50.196;8.050;2022-08-21T12:15:16;2.13;;;1.60;;
9174;SDS011;54374;50.196;8.050;2022-08-21T12:18:02;5.17;;;1.47;;
9174;SDS011;54374;50.196;8.050;2022-08-21T12:20:36;2.90;;;1.50;;
9174;SDS011;54374;50.196;8.050;2022-08-21T12:23:17;2.93;;;1.47;;
9174;SDS011;54374;50.196;8.050;2022-08-21T12:25:59;3.00;;;1.70;;
9174;SDS011;54374;50.196;8.050;2022-08-21T12:28:30;4.23;;;1.60;;
9174;SDS011;54374;50.196;8.050;2022-08-21T12:30:58;3.17;;;1.40;;
9174;SDS011;54374;50.196;8.050;2022-08-21T12:33:26;3.40;;;1.40;;
9174;SDS011;54374;50.196;8.050;2022-08-21T12:36:02;7.30;;;1.60;;
9174;SDS011;54374;50.196;8.050;2022-08-21T12:38:34;2.00;;;1.33;;
9174;SDS011;54374;50.196;8.050;2022-08-21T12:41:12;6.73;;;1.70;;
9174;SDS011;54374;50.196;8.050;2022-08-21T12:43:45;3.10;;;1.37;;
9174;SDS011;54374;50.196;8.050;2022-08-21T12:46:17;0.90;;;0.90;;
9174;SDS011;54374;50.196;8.050;2022-08-21T12:48:48;3.63;;;1.37;;
9174;SDS011;54374;50.196;8.050;2022-08-21T12:51:22;1.50;;;1.40;;
9174;SDS011;54374;50.196;8.050;2022-08-21T12:53:52;2.20;;;1.33;;
9174;SDS011;54374;50.196;8.050;2022-08-21T12:56:21;3.23;;;1.47;;
9174;SDS011;54374;50.196;8.050;2022-08-21T12:59:00;2.00;;;1.20;;
9174;SDS011;54374;50.196;8.050;2022-08-21T13:01:38;2.03;;;1.30;;
9174;SDS011;54374;50.196;8.050;2022-08-21T13:04:16;2.53;;;1.23;;
9174;SDS011;54374;50.196;8.050;2022-08-21T13:06:46;3.87;;;1.60;;
9174;SDS011;54374;50.196;8.050;2022-08-21T13:09:18;5.30;;;1.40;;
9174;SDS011;54374;50.196;8.050;2022-08-21T13:11:50;1.80;;;1.30;;
9174;SDS011;54374;50.196;8.050;2022-08-21T13:14:23;3.57;;;1.50;;
9174;SDS011;54374;50.196;8.050;2022-08-21T13:16:55;2.10;;;1.30;;
9174;SDS011;54374;50.196;8.050;2022-08-21T13:19:24;2.53;;;1.47;;
9174;SDS011;54374;50.196;8.050;2022-08-21T13:21:52;2.73;;;1.60;;
9174;SDS011;54374;50.196;8.050;2022-08-21T13:24:20;3.10;;;1.30;;
9174;SDS011;54374;50.196;8.050;2022-08-21T13:26:49;6.57;;;1.30;;
9174;SDS011;54374;50.196;8.050;2022-08-21T13:29:17;1.90;;;1.30;;
9174;SDS011;54374;50.196;8.050;2022-08-21T13:31:49;2.70;;;1.43;;
9174;SDS011;54374;50.196;8.050;2022-08-21T13:34:18;2.83;;;1.10;;
9174;SDS011;54374;50.196;8.050;2022-08-21T13:36:47;3.07;;;1.33;;
9174;SDS011;54374;50.196;8.050;2022-08-21T13:39:18;2.17;;;1.33;;
9174;SDS011;54374;50.196;8.050;2022-08-21T13:41:47;2.43;;;1.50;;
9174;SDS011;54374;50.196;8.050;2022-08-21T13:44:19;3.50;;;1.60;;
9174;SDS011;54374;50.196;8.050;2022-08-21T13:46:53;2.23;;;1.60;;
9174;SDS011;54374;50.196;8.050;2022-08-21T13:49:23;1.90;;;1.27;;
9174;SDS011;54374;50.196;8.050;2022-08-21T13:51:56;3.30;;;1.50;;
9174;SDS011;54374;50.196;8.050;2022-08-21T13:54:24;1.57;;;1.03;;
9174;SDS011;54374;50.196;8.050;2022-08-21T13:56:52;2.73;;;1.17;;
9174;SDS011;54374;50.196;8.050;2022-08-21T13:59:25;2.10;;;1.87;;
9174;SDS011;54374;50.196;8.050;2022-08-21T14:01:57;2.67;;;1.47;;
9174;SDS011;54374;50.196;8.050;2022-08-21T14:04:29;4.97;;;1.43;;
9174;SDS011;54374;50.196;8.050;2022-08-21T14:07:00;1.50;;;1.30;;
9174;SDS011;54374;50.196;8.050;2022-08-21T14:09:29;3.50;;;1.30;;
9174;SDS011;54374;50.196;8.050;2022-08-21T14:11:59;2.80;;;2.40;;
9174;SDS011;54374;50.196;8.050;2022-08-21T14:14:29;3.73;;;1.40;;
9174;SDS011;54374;50.196;8.050;2022-08-21T14:17:01;3.13;;;1.27;;
9174;SDS011;54374;50.196;8.050;2022-08-21T14:19:35;3.30;;;2.13;;
9174;SDS011;54374;50.196;8.050;2022-08-21T14:24:58;2.90;;;1.00;;
9174;SDS011;54374;50.196;8.050;2022-08-21T14:27:28;1.97;;;1.27;;
9174;SDS011;54374;50.196;8.050;2022-08-21T14:29:57;1.37;;;1.13;;
9174;SDS011;54374;50.196;8.050;2022-08-21T14:32:29;2.77;;;1.40;;
9174;SDS011;54374;50.196;8.050;2022-08-21T14:35:03;1.53;;;1.23;;
9174;SDS011;54374;50.196;8.050;2022-08-21T14:37:31;3.43;;;1.10;;
9174;SDS011;54374;50.196;8.050;2022-08-21T14:39:58;1.93;;;1.10;;
9174;SDS011;54374;50.196;8.050;2022-08-21T14:42:28;1.83;;;1.40;;
9174;SDS011;54374;50.196;8.050;2022-08-21T14:44:57;1.10;;;1.00;;
9174;SDS011;54374;50.196;8.050;2022-08-21T14:47:29;5.17;;;1.30;;
9174;SDS011;54374;50.196;8.050;2022-08-21T14:49:56;1.70;;;1.10;;
9174;SDS011;54374;50.196;8.050;2022-08-21T14:52:24;2.93;;;1.43;;
9174;SDS011;54374;50.196;8.050;2022-08-21T14:54:51;4.13;;;1.20;;
9174;SDS011;54374;50.196;8.050;2022-08-21T14:57:18;1.33;;;1.17;;
9174;SDS011;54374;50.196;8.050;2022-08-21T14:59:45;1.53;;;1.20;;
9174;SDS011;54374;50.196;8.050;2022-08-21T15:02:12;2.23;;;1.30;;
9174;SDS011;54374;50.196;8.050;2022-08-21T15:04:41;4.23;;;1.40;;
9174;SDS011;54374;50.196;8.050;2022-08-21T15:07:08;1.30;;;1.20;;
9174;SDS011;54374;50.196;8.050;2022-08-21T15:09:35;2.50;;;1.40;;
9174;SDS011;54374;50.196;8.050;2022-08-21T15:12:04;1.77;;;1.40;;
9174;SDS011;54374;50.196;8.050;2022-08-21T15:14:33;1.90;;;0.93;;
9174;SDS011;54374;50.196;8.050;2022-08-21T15:17:05;2.03;;;1.30;;
9174;SDS011;54374;50.196;8.050;2022-08-21T15:19:33;3.80;;;1.10;;
9174;SDS011;54374;50.196;8.050;2022-08-21T15:22:02;3.00;;;1.30;;
9174;SDS011;54374;50.196;8.050;2022-08-21T15:24:30;1.57;;;1.00;;